Aeroporto :
LOGIN :

Iscrizione | Disclaimer

   EN    FR    IT 

 










Sommario :    VFR   VFR Marginale   IFR   IFR Intensivo   IFR Molto Intensivo
Visibilità : 
Base nubi : 
>= 8 km
>= 3000ft
5 / 8 km
1000 / 3000 ft
1500m / 5 km
500 / 1000 ft
800 / 1500m
200 / 500 ft
< 800m
< 200 ft
Simboli :   Temporali  Nebbia  Neve Forte  Precipitazioni Forti  Vento > 20 kt
SIGMETs :   Varie  Temporali  Ghiacco  Turbolenza  Onda orograficha  Ceneri Vulcaniche






- Altitudine del aeroporto : 584 ft


LFPV - Villacoublay Vélizy

ULTIMO METAR :
  • 281330Z AUTO 22005KT 160V260 9999 FEW038 18/09 Q1020 NOSIG

METARs OBSOLETI :
  • 281300Z AUTO 21005KT 150V280 9999 FEW034 17/09 Q1021 NOSIG
  • 281230Z AUTO 24005KT 200V280 9999 FEW034 BKN210 17/09 Q1021 NOSIG
  • 281130Z AUTO 21005KT 150V260 9999 // NSC 16/08 Q1022
  • 281100Z AUTO 23007KT 200V260 9999 // NSC 16/09 Q1022

TAF TAF LFPV
Valido dal 28 a 09 ore il 29 a 09 ore UTC


280800Z 2809/2909 22005KT CAVOK TX18/2815Z TN10/2905Z
TEMPO 2902/2907 3500 -SHRA BKN014 SCT015TCU



MetMap, La meteo Aeronautica in un colpo d'occhio ! - Copyright ORBIFLY Dicembre 2007 - Disclaimer

ORBIFLY MET'MAP TEAM :

Programmazione e sviluppo : Alexandra Zaïnal
Concezione : Baudouin d'Aumeries
Aiuto per la programmazione : Marc-Olivier Méhu
Supporto tecnico e logistico : Manuel Goepfert
Aiuto per la traduzione : Arnaldo La Scala

Contatto : metmap@orbifly.com




FONTI E CREDITI :

   NOAA